sensor_id;sensor_type;location;lat;lon;timestamp;pressure;altitude;pressure_sealevel;temperature;humidity
28606;BME280;46498;49.968;7.754;2022-08-18T00:04:58;96771.00;;;20.29;73.21
28606;BME280;46498;49.968;7.754;2022-08-18T00:10:01;96781.00;;;20.25;73.62
28606;BME280;46498;49.968;7.754;2022-08-18T00:15:05;96772.00;;;20.16;74.04
28606;BME280;46498;49.968;7.754;2022-08-18T00:20:13;96769.00;;;20.13;74.34
28606;BME280;46498;49.968;7.754;2022-08-18T00:25:16;96771.00;;;20.01;75.25
28606;BME280;46498;49.968;7.754;2022-08-18T00:30:19;96765.00;;;19.93;75.65
28606;BME280;46498;49.968;7.754;2022-08-18T00:35:29;96759.00;;;19.88;76.23
28606;BME280;46498;49.968;7.754;2022-08-18T00:40:38;96776.00;;;19.80;76.63
28606;BME280;46498;49.968;7.754;2022-08-18T00:45:41;96783.00;;;19.71;77.22
28606;BME280;46498;49.968;7.754;2022-08-18T00:50:54;96794.00;;;19.65;77.49
28606;BME280;46498;49.968;7.754;2022-08-18T00:55:59;96800.00;;;19.62;77.98
28606;BME280;46498;49.968;7.754;2022-08-18T01:01:05;96799.00;;;19.63;77.97
28606;BME280;46498;49.968;7.754;2022-08-18T01:06:13;96793.00;;;19.68;77.56
28606;BME280;46498;49.968;7.754;2022-08-18T01:11:16;96790.00;;;19.77;77.35
28606;BME280;46498;49.968;7.754;2022-08-18T01:16:17;96787.00;;;19.75;77.46
28606;BME280;46498;49.968;7.754;2022-08-18T01:21:49;96786.00;;;19.74;77.30
28606;BME280;46498;49.968;7.754;2022-08-18T01:26:51;96783.00;;;19.72;77.13
28606;BME280;46498;49.968;7.754;2022-08-18T01:31:53;96772.00;;;19.76;76.60
28606;BME280;46498;49.968;7.754;2022-08-18T01:36:56;96779.00;;;19.77;75.91
28606;BME280;46498;49.968;7.754;2022-08-18T01:41:58;96781.00;;;19.68;75.87
28606;BME280;46498;49.968;7.754;2022-08-18T01:46:58;96782.00;;;19.79;74.96
28606;BME280;46498;49.968;7.754;2022-08-18T01:51:59;96783.00;;;19.71;76.29
28606;BME280;46498;49.968;7.754;2022-08-18T01:57:01;96770.00;;;19.57;76.45
28606;BME280;46498;49.968;7.754;2022-08-18T02:02:02;96783.00;;;19.40;77.49
28606;BME280;46498;49.968;7.754;2022-08-18T02:07:07;96787.00;;;19.37;77.58
28606;BME280;46498;49.968;7.754;2022-08-18T02:12:10;96794.00;;;19.37;77.25
28606;BME280;46498;49.968;7.754;2022-08-18T02:17:12;96817.00;;;19.19;78.20
28606;BME280;46498;49.968;7.754;2022-08-18T02:22:17;96815.00;;;19.27;77.67
28606;BME280;46498;49.968;7.754;2022-08-18T02:27:19;96809.00;;;19.10;79.33
28606;BME280;46498;49.968;7.754;2022-08-18T02:32:19;96815.00;;;19.36;77.95
28606;BME280;46498;49.968;7.754;2022-08-18T02:37:20;96798.00;;;19.32;77.90
28606;BME280;46498;49.968;7.754;2022-08-18T02:42:22;96804.00;;;19.27;78.04
28606;BME280;46498;49.968;7.754;2022-08-18T02:47:23;96794.00;;;19.37;77.08
28606;BME280;46498;49.968;7.754;2022-08-18T02:52:24;96794.00;;;19.30;77.29
28606;BME280;46498;49.968;7.754;2022-08-18T02:57:32;96792.00;;;19.39;76.71
28606;BME280;46498;49.968;7.754;2022-08-18T03:02:33;96796.00;;;19.36;76.81
28606;BME280;46498;49.968;7.754;2022-08-18T03:07:35;96783.00;;;19.37;76.81
28606;BME280;46498;49.968;7.754;2022-08-18T03:12:41;96789.00;;;19.37;77.21
28606;BME280;46498;49.968;7.754;2022-08-18T03:17:42;96798.00;;;19.32;77.96
28606;BME280;46498;49.968;7.754;2022-08-18T03:22:43;96785.00;;;19.33;78.49
28606;BME280;46498;49.968;7.754;2022-08-18T03:27:44;96793.00;;;19.43;78.44
28606;BME280;46498;49.968;7.754;2022-08-18T03:32:45;96784.00;;;19.41;79.20
28606;BME280;46498;49.968;7.754;2022-08-18T03:37:47;96785.00;;;19.21;80.42
28606;BME280;46498;49.968;7.754;2022-08-18T03:42:48;96790.00;;;19.17;81.13
28606;BME280;46498;49.968;7.754;2022-08-18T03:47:49;96787.00;;;19.17;81.48
28606;BME280;46498;49.968;7.754;2022-08-18T03:52:54;96791.00;;;19.18;81.50
28606;BME280;46498;49.968;7.754;2022-08-18T03:58:00;96788.00;;;18.93;82.58
28606;BME280;46498;49.968;7.754;2022-08-18T04:03:04;96789.00;;;18.98;82.24
28606;BME280;46498;49.968;7.754;2022-08-18T04:08:05;96787.00;;;18.83;83.28
28606;BME280;46498;49.968;7.754;2022-08-18T04:13:06;96778.00;;;18.86;83.94
28606;BME280;46498;49.968;7.754;2022-08-18T04:18:07;96774.00;;;18.87;83.94
28606;BME280;46498;49.968;7.754;2022-08-18T04:23:09;96772.00;;;18.79;85.96
28606;BME280;46498;49.968;7.754;2022-08-18T04:28:10;96772.00;;;18.72;87.21
28606;BME280;46498;49.968;7.754;2022-08-18T04:33:11;96774.00;;;18.73;87.47
28606;BME280;46498;49.968;7.754;2022-08-18T04:38:12;96761.00;;;18.74;86.64
28606;BME280;46498;49.968;7.754;2022-08-18T04:43:13;96772.00;;;18.72;86.45
28606;BME280;46498;49.968;7.754;2022-08-18T04:48:15;96779.00;;;18.66;86.51
28606;BME280;46498;49.968;7.754;2022-08-18T04:53:16;96788.00;;;18.45;88.29
28606;BME280;46498;49.968;7.754;2022-08-18T04:58:35;96789.00;;;18.27;89.65
28606;BME280;46498;49.968;7.754;2022-08-18T05:03:37;96790.00;;;18.33;89.16
28606;BME280;46498;49.968;7.754;2022-08-18T05:08:53;96802.00;;;18.41;88.73
28606;BME280;46498;49.968;7.754;2022-08-18T05:13:56;96817.00;;;18.45;88.53
28606;BME280;46498;49.968;7.754;2022-08-18T05:18:57;96824.00;;;18.57;88.52
28606;BME280;46498;49.968;7.754;2022-08-18T05:23:59;96824.00;;;18.52;88.73
28606;BME280;46498;49.968;7.754;2022-08-18T05:29:01;96837.00;;;18.53;89.58
28606;BME280;46498;49.968;7.754;2022-08-18T05:34:19;96847.00;;;18.59;88.81
28606;BME280;46498;49.968;7.754;2022-08-18T05:39:22;96849.00;;;18.74;88.75
28606;BME280;46498;49.968;7.754;2022-08-18T05:44:27;96853.00;;;18.87;88.13
28606;BME280;46498;49.968;7.754;2022-08-18T05:49:29;96844.00;;;19.01;87.05
28606;BME280;46498;49.968;7.754;2022-08-18T05:54:47;96848.00;;;19.00;86.49
28606;BME280;46498;49.968;7.754;2022-08-18T06:00:08;96851.00;;;18.98;86.16
28606;BME280;46498;49.968;7.754;2022-08-18T06:05:25;96862.00;;;18.85;87.01
28606;BME280;46498;49.968;7.754;2022-08-18T06:10:27;96856.00;;;19.00;86.69
28606;BME280;46498;49.968;7.754;2022-08-18T06:16:53;96856.00;;;19.12;86.22
28606;BME280;46498;49.968;7.754;2022-08-18T06:24:53;96851.00;;;19.12;85.46
28606;BME280;46498;49.968;7.754;2022-08-18T06:30:16;96847.00;;;19.10;86.09
28606;BME280;46498;49.968;7.754;2022-08-18T06:35:54;96843.00;;;19.07;86.53
28606;BME280;46498;49.968;7.754;2022-08-18T06:42:00;96858.00;;;19.17;85.83
28606;BME280;46498;49.968;7.754;2022-08-18T06:49:02;96858.00;;;19.13;86.50
28606;BME280;46498;49.968;7.754;2022-08-18T06:54:06;96849.00;;;19.26;85.38
28606;BME280;46498;49.968;7.754;2022-08-18T06:59:32;96852.00;;;19.40;84.93
28606;BME280;46498;49.968;7.754;2022-08-18T07:05:01;96859.00;;;19.46;84.32
28606;BME280;46498;49.968;7.754;2022-08-18T07:15:55;96853.00;;;19.32;84.74
28606;BME280;46498;49.968;7.754;2022-08-18T07:21:27;96848.00;;;19.23;85.82
28606;BME280;46498;49.968;7.754;2022-08-18T07:26:28;96851.00;;;19.18;86.75
28606;BME280;46498;49.968;7.754;2022-08-18T07:31:51;96855.00;;;19.26;86.20
28606;BME280;46498;49.968;7.754;2022-08-18T07:37:34;96847.00;;;19.53;84.16
28606;BME280;46498;49.968;7.754;2022-08-18T07:42:49;96856.00;;;19.46;84.84
28606;BME280;46498;49.968;7.754;2022-08-18T07:48:12;96848.00;;;19.63;84.06
28606;BME280;46498;49.968;7.754;2022-08-18T07:54:13;96849.00;;;19.70;84.31
28606;BME280;46498;49.968;7.754;2022-08-18T08:11:57;96852.00;;;19.92;82.61
28606;BME280;46498;49.968;7.754;2022-08-18T08:41:01;96863.00;;;20.50;78.01
28606;BME280;46498;49.968;7.754;2022-08-18T08:46:09;96893.00;;;20.51;78.12
28606;BME280;46498;49.968;7.754;2022-08-18T08:56:53;96885.00;;;19.81;81.59
28606;BME280;46498;49.968;7.754;2022-08-18T09:03:48;96889.00;;;20.04;80.47
28606;BME280;46498;49.968;7.754;2022-08-18T09:09:48;96895.00;;;19.90;81.55
28606;BME280;46498;49.968;7.754;2022-08-18T09:16:47;96910.00;;;20.05;80.59
28606;BME280;46498;49.968;7.754;2022-08-18T09:22:16;96912.00;;;20.24;79.37
28606;BME280;46498;49.968;7.754;2022-08-18T09:27:36;96926.00;;;20.29;79.79
28606;BME280;46498;49.968;7.754;2022-08-18T09:33:25;96917.00;;;20.60;78.46
28606;BME280;46498;49.968;7.754;2022-08-18T09:38:35;96927.00;;;20.79;77.23
28606;BME280;46498;49.968;7.754;2022-08-18T09:44:00;96922.00;;;20.90;76.79
28606;BME280;46498;49.968;7.754;2022-08-18T13:09:51;96930.00;;;20.61;75.41
28606;BME280;46498;49.968;7.754;2022-08-18T13:14:54;96820.00;;;24.56;53.07
28606;BME280;46498;49.968;7.754;2022-08-18T13:19:55;96821.00;;;24.46;51.75
28606;BME280;46498;49.968;7.754;2022-08-18T13:24:58;96819.00;;;23.92;53.91
28606;BME280;46498;49.968;7.754;2022-08-18T13:30:12;96813.00;;;23.88;53.70
28606;BME280;46498;49.968;7.754;2022-08-18T13:35:33;96801.00;;;23.88;53.71
28606;BME280;46498;49.968;7.754;2022-08-18T13:40:52;96797.00;;;23.98;54.72
28606;BME280;46498;49.968;7.754;2022-08-18T13:45:53;96795.00;;;23.98;55.01
28606;BME280;46498;49.968;7.754;2022-08-18T13:50:57;96800.00;;;23.96;55.21
28606;BME280;46498;49.968;7.754;2022-08-18T13:56:01;96803.00;;;24.07;55.41
28606;BME280;46498;49.968;7.754;2022-08-18T14:01:05;96793.00;;;23.79;56.54
28606;BME280;46498;49.968;7.754;2022-08-18T14:06:37;96775.00;;;23.74;57.77
28606;BME280;46498;49.968;7.754;2022-08-18T14:11:48;96771.00;;;24.72;54.32
28606;BME280;46498;49.968;7.754;2022-08-18T14:16:51;96758.00;;;25.56;51.50
28606;BME280;46498;49.968;7.754;2022-08-18T14:21:53;96765.00;;;25.68;51.28
28606;BME280;46498;49.968;7.754;2022-08-18T14:27:13;96770.00;;;26.30;49.16
28606;BME280;46498;49.968;7.754;2022-08-18T14:32:19;96777.00;;;26.67;48.00
28606;BME280;46498;49.968;7.754;2022-08-18T14:37:31;96766.00;;;26.73;47.92
28606;BME280;46498;49.968;7.754;2022-08-18T14:42:34;96774.00;;;26.05;49.92
28606;BME280;46498;49.968;7.754;2022-08-18T14:47:55;96767.00;;;25.44;51.02
28606;BME280;46498;49.968;7.754;2022-08-18T14:52:58;96776.00;;;25.11;51.95
28606;BME280;46498;49.968;7.754;2022-08-18T14:57:59;96775.00;;;24.98;51.17
28606;BME280;46498;49.968;7.754;2022-08-18T15:03:00;96770.00;;;24.71;52.38
28606;BME280;46498;49.968;7.754;2022-08-18T15:08:02;96762.00;;;24.73;52.24
28606;BME280;46498;49.968;7.754;2022-08-18T15:13:04;96772.00;;;24.47;53.53
28606;BME280;46498;49.968;7.754;2022-08-18T15:18:05;96775.00;;;24.47;53.94
28606;BME280;46498;49.968;7.754;2022-08-18T15:23:10;96776.00;;;24.42;53.61
28606;BME280;46498;49.968;7.754;2022-08-18T15:28:31;96790.00;;;24.20;54.58
28606;BME280;46498;49.968;7.754;2022-08-18T15:33:32;96785.00;;;24.01;56.01
28606;BME280;46498;49.968;7.754;2022-08-18T15:38:36;96794.00;;;23.85;56.78
28606;BME280;46498;49.968;7.754;2022-08-18T15:43:38;96795.00;;;23.78;56.84
28606;BME280;46498;49.968;7.754;2022-08-18T15:48:47;96795.00;;;23.80;56.69
28606;BME280;46498;49.968;7.754;2022-08-18T15:53:48;96790.00;;;23.64;57.06
28606;BME280;46498;49.968;7.754;2022-08-18T15:58:50;96794.00;;;23.89;56.37
28606;BME280;46498;49.968;7.754;2022-08-18T16:03:52;96790.00;;;23.73;54.14
28606;BME280;46498;49.968;7.754;2022-08-18T16:08:55;96796.00;;;23.70;52.13
28606;BME280;46498;49.968;7.754;2022-08-18T16:13:57;96797.00;;;23.48;53.56
28606;BME280;46498;49.968;7.754;2022-08-18T16:19:04;96806.00;;;23.40;55.09
28606;BME280;46498;49.968;7.754;2022-08-18T16:24:09;96799.00;;;23.26;56.16
28606;BME280;46498;49.968;7.754;2022-08-18T16:29:10;96789.00;;;23.07;57.27
28606;BME280;46498;49.968;7.754;2022-08-18T16:34:11;96788.00;;;23.04;57.95
28606;BME280;46498;49.968;7.754;2022-08-18T16:39:12;96776.00;;;22.93;58.20
28606;BME280;46498;49.968;7.754;2022-08-18T16:44:13;96770.00;;;22.97;57.95
28606;BME280;46498;49.968;7.754;2022-08-18T16:49:16;96778.00;;;22.95;57.48
28606;BME280;46498;49.968;7.754;2022-08-18T16:54:19;96776.00;;;22.82;57.25
28606;BME280;46498;49.968;7.754;2022-08-18T16:59:21;96770.00;;;22.84;57.16
28606;BME280;46498;49.968;7.754;2022-08-18T17:04:41;96783.00;;;22.79;57.38
28606;BME280;46498;49.968;7.754;2022-08-18T17:09:42;96768.00;;;22.59;57.33
28606;BME280;46498;49.968;7.754;2022-08-18T17:14:43;96765.00;;;22.59;57.17
28606;BME280;46498;49.968;7.754;2022-08-18T17:19:45;96766.00;;;22.43;57.71
28606;BME280;46498;49.968;7.754;2022-08-18T17:24:46;96756.00;;;22.44;58.09
28606;BME280;46498;49.968;7.754;2022-08-18T17:33:26;96755.00;;;22.21;58.82
28606;BME280;46498;49.968;7.754;2022-08-18T17:38:34;96752.00;;;22.16;59.70
28606;BME280;46498;49.968;7.754;2022-08-18T17:43:39;96753.00;;;22.15;60.14
28606;BME280;46498;49.968;7.754;2022-08-18T17:48:45;96762.00;;;21.97;60.91
28606;BME280;46498;49.968;7.754;2022-08-18T17:53:47;96764.00;;;21.86;61.61
28606;BME280;46498;49.968;7.754;2022-08-18T17:58:54;96765.00;;;21.88;61.56
28606;BME280;46498;49.968;7.754;2022-08-18T18:03:58;96772.00;;;21.82;61.94
28606;BME280;46498;49.968;7.754;2022-08-18T18:09:27;96771.00;;;21.71;62.62
28606;BME280;46498;49.968;7.754;2022-08-18T18:14:37;96770.00;;;21.64;62.75
28606;BME280;46498;49.968;7.754;2022-08-18T18:19:44;96775.00;;;21.65;62.63
28606;BME280;46498;49.968;7.754;2022-08-18T18:24:58;96767.00;;;21.46;63.31
28606;BME280;46498;49.968;7.754;2022-08-18T18:30:06;96764.00;;;21.35;63.86
28606;BME280;46498;49.968;7.754;2022-08-18T18:44:27;96754.00;;;21.01;65.45
28606;BME280;46498;49.968;7.754;2022-08-18T19:05:36;96773.00;;;20.85;66.24
28606;BME280;46498;49.968;7.754;2022-08-18T19:10:55;96761.00;;;20.72;67.26
28606;BME280;46498;49.968;7.754;2022-08-18T19:16:17;96758.00;;;20.61;67.80
28606;BME280;46498;49.968;7.754;2022-08-18T19:21:26;96769.00;;;20.54;68.10
28606;BME280;46498;49.968;7.754;2022-08-18T19:27:14;96765.00;;;20.51;68.35
28606;BME280;46498;49.968;7.754;2022-08-18T19:32:31;96771.00;;;20.40;68.88
28606;BME280;46498;49.968;7.754;2022-08-18T19:38:07;96770.00;;;20.39;68.96
28606;BME280;46498;49.968;7.754;2022-08-18T19:43:37;96768.00;;;20.35;69.22
28606;BME280;46498;49.968;7.754;2022-08-18T19:49:00;96770.00;;;20.25;69.61
28606;BME280;46498;49.968;7.754;2022-08-18T20:01:00;96773.00;;;20.11;70.05
28606;BME280;46498;49.968;7.754;2022-08-18T20:09:46;96776.00;;;20.04;70.58
28606;BME280;46498;49.968;7.754;2022-08-18T20:20:13;96779.00;;;19.84;71.56
28606;BME280;46498;49.968;7.754;2022-08-18T20:25:59;96789.00;;;19.78;71.75
28606;BME280;46498;49.968;7.754;2022-08-18T20:31:14;96777.00;;;19.72;72.12
28606;BME280;46498;49.968;7.754;2022-08-18T20:36:31;96776.00;;;19.68;72.20
28606;BME280;46498;49.968;7.754;2022-08-18T20:41:45;96777.00;;;19.68;72.07
28606;BME280;46498;49.968;7.754;2022-08-18T20:47:06;96781.00;;;19.69;71.98
28606;BME280;46498;49.968;7.754;2022-08-18T20:52:36;96766.00;;;19.70;71.89
28606;BME280;46498;49.968;7.754;2022-08-18T20:57:39;96781.00;;;19.73;71.73
28606;BME280;46498;49.968;7.754;2022-08-18T21:02:52;96777.00;;;19.67;71.86
28606;BME280;46498;49.968;7.754;2022-08-18T21:08:09;96782.00;;;19.68;71.92
28606;BME280;46498;49.968;7.754;2022-08-18T21:14:27;96780.00;;;19.67;72.09
28606;BME280;46498;49.968;7.754;2022-08-18T21:19:39;96776.00;;;19.75;71.58
28606;BME280;46498;49.968;7.754;2022-08-18T21:24:43;96779.00;;;19.73;71.67
28606;BME280;46498;49.968;7.754;2022-08-18T21:29:46;96789.00;;;19.67;71.96
28606;BME280;46498;49.968;7.754;2022-08-18T21:34:50;96802.00;;;19.76;71.47
28606;BME280;46498;49.968;7.754;2022-08-18T21:39:56;96813.00;;;19.85;71.00
28606;BME280;46498;49.968;7.754;2022-08-18T21:44:59;96810.00;;;19.72;71.61
28606;BME280;46498;49.968;7.754;2022-08-18T21:50:11;96810.00;;;19.58;72.60
28606;BME280;46498;49.968;7.754;2022-08-18T22:01:11;96817.00;;;19.27;74.18
28606;BME280;46498;49.968;7.754;2022-08-18T22:06:38;96824.00;;;19.16;74.82
28606;BME280;46498;49.968;7.754;2022-08-18T22:11:40;96828.00;;;19.17;74.87
28606;BME280;46498;49.968;7.754;2022-08-18T22:17:56;96828.00;;;19.13;75.03
28606;BME280;46498;49.968;7.754;2022-08-18T22:23:08;96826.00;;;19.12;74.88
28606;BME280;46498;49.968;7.754;2022-08-18T22:28:31;96813.00;;;18.91;75.75
28606;BME280;46498;49.968;7.754;2022-08-18T22:33:33;96822.00;;;18.90;76.02
28606;BME280;46498;49.968;7.754;2022-08-18T22:38:34;96825.00;;;18.81;76.63
28606;BME280;46498;49.968;7.754;2022-08-18T22:43:35;96827.00;;;18.79;77.02
28606;BME280;46498;49.968;7.754;2022-08-18T22:48:37;96824.00;;;18.66;77.73
28606;BME280;46498;49.968;7.754;2022-08-18T22:53:38;96821.00;;;18.82;77.01
28606;BME280;46498;49.968;7.754;2022-08-18T22:58:41;96831.00;;;18.80;77.03
28606;BME280;46498;49.968;7.754;2022-08-18T23:03:43;96844.00;;;18.79;77.11
28606;BME280;46498;49.968;7.754;2022-08-18T23:08:44;96842.00;;;18.80;77.18
28606;BME280;46498;49.968;7.754;2022-08-18T23:13:58;96857.00;;;18.73;77.76
28606;BME280;46498;49.968;7.754;2022-08-18T23:19:00;96864.00;;;18.76;77.88
28606;BME280;46498;49.968;7.754;2022-08-18T23:24:03;96868.00;;;18.70;78.26
28606;BME280;46498;49.968;7.754;2022-08-18T23:29:06;96866.00;;;18.65;78.49
28606;BME280;46498;49.968;7.754;2022-08-18T23:34:11;96868.00;;;18.70;78.40
28606;BME280;46498;49.968;7.754;2022-08-18T23:39:13;96871.00;;;18.74;78.21
28606;BME280;46498;49.968;7.754;2022-08-18T23:44:14;96866.00;;;18.72;78.22
28606;BME280;46498;49.968;7.754;2022-08-18T23:49:16;96856.00;;;18.69;78.35
28606;BME280;46498;49.968;7.754;2022-08-18T23:54:20;96847.00;;;18.69;78.73
28606;BME280;46498;49.968;7.754;2022-08-18T23:59:22;96853.00;;;18.69;78.93
